sensor_id;sensor_type;location;lat;lon;timestamp;temperature;humidity
21425;DHT22;10873;51.132;16.848;2022-08-14T00:02:26;26.90;73.50
21425;DHT22;10873;51.132;16.848;2022-08-14T00:04:52;26.90;73.40
21425;DHT22;10873;51.132;16.848;2022-08-14T00:07:18;26.90;73.40
21425;DHT22;10873;51.132;16.848;2022-08-14T00:09:45;26.90;73.30
21425;DHT22;10873;51.132;16.848;2022-08-14T00:12:11;26.90;73.30
21425;DHT22;10873;51.132;16.848;2022-08-14T00:14:38;26.90;73.30
21425;DHT22;10873;51.132;16.848;2022-08-14T00:17:04;26.90;73.30
21425;DHT22;10873;51.132;16.848;2022-08-14T00:19:32;26.90;73.20
21425;DHT22;10873;51.132;16.848;2022-08-14T00:21:58;26.90;73.20
21425;DHT22;10873;51.132;16.848;2022-08-14T00:24:24;26.90;73.10
21425;DHT22;10873;51.132;16.848;2022-08-14T00:26:50;26.90;73.10
21425;DHT22;10873;51.132;16.848;2022-08-14T00:29:16;26.90;73.10
21425;DHT22;10873;51.132;16.848;2022-08-14T00:31:42;26.90;73.10
21425;DHT22;10873;51.132;16.848;2022-08-14T00:34:08;26.90;73.10
21425;DHT22;10873;51.132;16.848;2022-08-14T00:36:36;26.90;73.20
21425;DHT22;10873;51.132;16.848;2022-08-14T00:39:03;26.90;73.20
21425;DHT22;10873;51.132;16.848;2022-08-14T00:41:30;26.90;73.20
21425;DHT22;10873;51.132;16.848;2022-08-14T00:43:57;26.90;73.20
21425;DHT22;10873;51.132;16.848;2022-08-14T00:46:23;26.90;73.20
21425;DHT22;10873;51.132;16.848;2022-08-14T00:48:49;26.90;73.20
21425;DHT22;10873;51.132;16.848;2022-08-14T00:51:16;26.90;73.20
21425;DHT22;10873;51.132;16.848;2022-08-14T00:53:44;26.90;73.20
21425;DHT22;10873;51.132;16.848;2022-08-14T00:56:10;26.90;73.40
21425;DHT22;10873;51.132;16.848;2022-08-14T00:58:36;26.90;73.30
21425;DHT22;10873;51.132;16.848;2022-08-14T01:01:04;26.90;73.30
21425;DHT22;10873;51.132;16.848;2022-08-14T01:03:31;26.90;73.30
21425;DHT22;10873;51.132;16.848;2022-08-14T01:06:06;26.90;73.30
21425;DHT22;10873;51.132;16.848;2022-08-14T01:08:34;26.90;73.30
21425;DHT22;10873;51.132;16.848;2022-08-14T01:11:02;26.90;73.30
21425;DHT22;10873;51.132;16.848;2022-08-14T01:13:32;26.90;73.30
21425;DHT22;10873;51.132;16.848;2022-08-14T01:16:02;26.90;73.30
21425;DHT22;10873;51.132;16.848;2022-08-14T01:18:29;26.90;73.30
21425;DHT22;10873;51.132;16.848;2022-08-14T01:21:15;26.90;73.40
21425;DHT22;10873;51.132;16.848;2022-08-14T01:23:45;26.90;73.40
21425;DHT22;10873;51.132;16.848;2022-08-14T01:26:12;26.90;73.40
21425;DHT22;10873;51.132;16.848;2022-08-14T01:28:41;26.90;73.30
21425;DHT22;10873;51.132;16.848;2022-08-14T01:31:09;26.90;73.40
21425;DHT22;10873;51.132;16.848;2022-08-14T01:33:38;26.80;73.30
21425;DHT22;10873;51.132;16.848;2022-08-14T01:36:07;26.90;73.40
21425;DHT22;10873;51.132;16.848;2022-08-14T01:38:33;26.90;73.30
21425;DHT22;10873;51.132;16.848;2022-08-14T01:41:01;26.90;73.30
21425;DHT22;10873;51.132;16.848;2022-08-14T01:43:29;26.80;73.20
21425;DHT22;10873;51.132;16.848;2022-08-14T01:46:04;26.90;73.30
21425;DHT22;10873;51.132;16.848;2022-08-14T01:48:31;26.80;73.20
21425;DHT22;10873;51.132;16.848;2022-08-14T01:50:58;26.80;73.20
21425;DHT22;10873;51.132;16.848;2022-08-14T01:53:26;26.80;73.20
21425;DHT22;10873;51.132;16.848;2022-08-14T01:55:54;26.80;73.20
21425;DHT22;10873;51.132;16.848;2022-08-14T01:58:23;26.80;73.20
21425;DHT22;10873;51.132;16.848;2022-08-14T02:00:52;26.80;73.20
21425;DHT22;10873;51.132;16.848;2022-08-14T02:03:19;26.80;73.10
21425;DHT22;10873;51.132;16.848;2022-08-14T02:05:45;26.80;73.10
21425;DHT22;10873;51.132;16.848;2022-08-14T02:08:11;26.80;73.10
21425;DHT22;10873;51.132;16.848;2022-08-14T02:10:38;26.80;73.00
21425;DHT22;10873;51.132;16.848;2022-08-14T02:13:04;26.80;73.00
21425;DHT22;10873;51.132;16.848;2022-08-14T02:15:34;26.80;73.00
21425;DHT22;10873;51.132;16.848;2022-08-14T02:18:00;26.80;73.00
21425;DHT22;10873;51.132;16.848;2022-08-14T02:20:29;26.80;73.00
21425;DHT22;10873;51.132;16.848;2022-08-14T02:22:58;26.80;73.00
21425;DHT22;10873;51.132;16.848;2022-08-14T02:25:25;26.80;73.00
21425;DHT22;10873;51.132;16.848;2022-08-14T02:27:51;26.80;73.00
21425;DHT22;10873;51.132;16.848;2022-08-14T02:30:21;26.80;73.00
21425;DHT22;10873;51.132;16.848;2022-08-14T02:32:51;26.80;73.00
21425;DHT22;10873;51.132;16.848;2022-08-14T02:35:17;26.80;73.00
21425;DHT22;10873;51.132;16.848;2022-08-14T02:37:44;26.80;73.00
21425;DHT22;10873;51.132;16.848;2022-08-14T02:40:10;26.80;73.00
21425;DHT22;10873;51.132;16.848;2022-08-14T02:42:37;26.80;73.00
21425;DHT22;10873;51.132;16.848;2022-08-14T02:45:05;26.80;73.00
21425;DHT22;10873;51.132;16.848;2022-08-14T02:47:32;26.80;73.00
21425;DHT22;10873;51.132;16.848;2022-08-14T02:50:00;26.80;73.00
21425;DHT22;10873;51.132;16.848;2022-08-14T02:52:26;26.80;73.00
21425;DHT22;10873;51.132;16.848;2022-08-14T02:54:52;26.80;73.00
21425;DHT22;10873;51.132;16.848;2022-08-14T02:57:19;26.80;72.90
21425;DHT22;10873;51.132;16.848;2022-08-14T02:59:48;26.80;72.90
21425;DHT22;10873;51.132;16.848;2022-08-14T03:02:15;26.80;72.90
21425;DHT22;10873;51.132;16.848;2022-08-14T03:04:41;26.80;72.90
21425;DHT22;10873;51.132;16.848;2022-08-14T03:07:08;26.80;72.90
21425;DHT22;10873;51.132;16.848;2022-08-14T03:09:35;26.80;72.90
21425;DHT22;10873;51.132;16.848;2022-08-14T03:12:02;26.80;72.90
21425;DHT22;10873;51.132;16.848;2022-08-14T03:14:29;26.80;72.80
21425;DHT22;10873;51.132;16.848;2022-08-14T03:16:56;26.80;72.70
21425;DHT22;10873;51.132;16.848;2022-08-14T03:19:22;26.80;72.70
21425;DHT22;10873;51.132;16.848;2022-08-14T03:21:48;26.80;72.70
21425;DHT22;10873;51.132;16.848;2022-08-14T03:24:15;26.80;72.60
21425;DHT22;10873;51.132;16.848;2022-08-14T03:26:43;26.80;72.60
21425;DHT22;10873;51.132;16.848;2022-08-14T03:29:10;26.80;72.50
21425;DHT22;10873;51.132;16.848;2022-08-14T03:31:38;26.70;72.40
21425;DHT22;10873;51.132;16.848;2022-08-14T03:34:05;26.70;73.00
21425;DHT22;10873;51.132;16.848;2022-08-14T03:36:35;26.70;72.30
21425;DHT22;10873;51.132;16.848;2022-08-14T03:39:03;26.70;72.20
21425;DHT22;10873;51.132;16.848;2022-08-14T03:41:31;26.70;72.10
21425;DHT22;10873;51.132;16.848;2022-08-14T03:43:59;26.80;72.20
21425;DHT22;10873;51.132;16.848;2022-08-14T03:46:27;26.70;72.10
21425;DHT22;10873;51.132;16.848;2022-08-14T03:48:55;26.70;72.00
21425;DHT22;10873;51.132;16.848;2022-08-14T03:51:22;26.70;72.00
21425;DHT22;10873;51.132;16.848;2022-08-14T03:53:55;26.70;71.90
21425;DHT22;10873;51.132;16.848;2022-08-14T03:56:22;26.70;71.80
21425;DHT22;10873;51.132;16.848;2022-08-14T03:58:51;26.70;71.90
21425;DHT22;10873;51.132;16.848;2022-08-14T04:01:19;26.70;71.90
21425;DHT22;10873;51.132;16.848;2022-08-14T04:03:47;26.70;71.80
21425;DHT22;10873;51.132;16.848;2022-08-14T04:06:13;26.70;71.80
21425;DHT22;10873;51.132;16.848;2022-08-14T04:08:40;26.70;71.70
21425;DHT22;10873;51.132;16.848;2022-08-14T04:11:08;26.70;71.70
21425;DHT22;10873;51.132;16.848;2022-08-14T04:13:37;26.70;71.70
21425;DHT22;10873;51.132;16.848;2022-08-14T04:16:08;26.70;71.70
21425;DHT22;10873;51.132;16.848;2022-08-14T04:18:38;26.70;71.70
21425;DHT22;10873;51.132;16.848;2022-08-14T04:21:04;26.70;71.70
21425;DHT22;10873;51.132;16.848;2022-08-14T04:23:31;26.70;71.70
21425;DHT22;10873;51.132;16.848;2022-08-14T04:25:59;26.70;71.70
21425;DHT22;10873;51.132;16.848;2022-08-14T04:28:25;26.70;71.70
21425;DHT22;10873;51.132;16.848;2022-08-14T04:30:51;26.70;71.70
21425;DHT22;10873;51.132;16.848;2022-08-14T04:33:19;26.70;71.70
21425;DHT22;10873;51.132;16.848;2022-08-14T04:35:45;26.70;71.70
21425;DHT22;10873;51.132;16.848;2022-08-14T04:38:11;26.70;71.70
21425;DHT22;10873;51.132;16.848;2022-08-14T04:40:55;26.70;71.70
21425;DHT22;10873;51.132;16.848;2022-08-14T04:43:41;26.70;71.70
21425;DHT22;10873;51.132;16.848;2022-08-14T04:46:08;26.70;71.70
21425;DHT22;10873;51.132;16.848;2022-08-14T04:48:36;26.70;71.70
21425;DHT22;10873;51.132;16.848;2022-08-14T04:51:05;26.70;71.80
21425;DHT22;10873;51.132;16.848;2022-08-14T04:53:32;26.70;71.80
21425;DHT22;10873;51.132;16.848;2022-08-14T04:55:59;26.70;71.80
21425;DHT22;10873;51.132;16.848;2022-08-14T04:58:27;26.70;71.80
21425;DHT22;10873;51.132;16.848;2022-08-14T05:00:55;26.70;71.90
21425;DHT22;10873;51.132;16.848;2022-08-14T05:03:23;26.70;72.00
21425;DHT22;10873;51.132;16.848;2022-08-14T05:05:53;26.70;72.00
21425;DHT22;10873;51.132;16.848;2022-08-14T05:08:20;26.70;72.00
21425;DHT22;10873;51.132;16.848;2022-08-14T05:10:49;26.70;72.10
21425;DHT22;10873;51.132;16.848;2022-08-14T05:13:17;26.70;72.10
21425;DHT22;10873;51.132;16.848;2022-08-14T05:15:43;26.70;72.90
21425;DHT22;10873;51.132;16.848;2022-08-14T05:18:12;26.70;72.20
21425;DHT22;10873;51.132;16.848;2022-08-14T05:20:39;26.70;72.30
21425;DHT22;10873;51.132;16.848;2022-08-14T05:23:08;26.70;72.30
21425;DHT22;10873;51.132;16.848;2022-08-14T05:25:34;26.70;72.40
21425;DHT22;10873;51.132;16.848;2022-08-14T05:28:08;26.70;72.40
21425;DHT22;10873;51.132;16.848;2022-08-14T05:30:35;26.70;72.50
21425;DHT22;10873;51.132;16.848;2022-08-14T05:33:02;26.70;72.60
21425;DHT22;10873;51.132;16.848;2022-08-14T05:35:28;26.70;72.60
21425;DHT22;10873;51.132;16.848;2022-08-14T05:37:54;26.70;72.70
21425;DHT22;10873;51.132;16.848;2022-08-14T05:40:21;26.70;73.50
21425;DHT22;10873;51.132;16.848;2022-08-14T05:42:47;26.70;72.70
21425;DHT22;10873;51.132;16.848;2022-08-14T05:45:13;26.70;72.80
21425;DHT22;10873;51.132;16.848;2022-08-14T05:47:42;26.70;72.80
21425;DHT22;10873;51.132;16.848;2022-08-14T05:50:10;26.70;72.90
21425;DHT22;10873;51.132;16.848;2022-08-14T05:52:36;26.70;72.90
21425;DHT22;10873;51.132;16.848;2022-08-14T05:55:03;26.70;73.00
21425;DHT22;10873;51.132;16.848;2022-08-14T05:57:31;26.70;73.00
21425;DHT22;10873;51.132;16.848;2022-08-14T05:59:57;26.70;73.10
21425;DHT22;10873;51.132;16.848;2022-08-14T06:02:23;26.70;73.10
21425;DHT22;10873;51.132;16.848;2022-08-14T06:04:49;26.70;73.20
21425;DHT22;10873;51.132;16.848;2022-08-14T06:07:15;26.70;73.20
21425;DHT22;10873;51.132;16.848;2022-08-14T06:09:42;26.70;73.20
21425;DHT22;10873;51.132;16.848;2022-08-14T06:12:08;26.70;73.30
21425;DHT22;10873;51.132;16.848;2022-08-14T06:14:36;26.70;73.30
21425;DHT22;10873;51.132;16.848;2022-08-14T06:17:03;26.70;73.30
21425;DHT22;10873;51.132;16.848;2022-08-14T06:19:29;26.70;73.40
21425;DHT22;10873;51.132;16.848;2022-08-14T06:21:55;26.70;73.40
21425;DHT22;10873;51.132;16.848;2022-08-14T06:24:22;26.70;73.50
21425;DHT22;10873;51.132;16.848;2022-08-14T06:26:48;26.70;73.50
21425;DHT22;10873;51.132;16.848;2022-08-14T06:29:14;26.70;73.50
21425;DHT22;10873;51.132;16.848;2022-08-14T06:31:42;26.70;73.50
21425;DHT22;10873;51.132;16.848;2022-08-14T06:34:09;26.70;73.50
21425;DHT22;10873;51.132;16.848;2022-08-14T06:36:35;26.70;73.60
21425;DHT22;10873;51.132;16.848;2022-08-14T06:39:02;26.70;73.70
21425;DHT22;10873;51.132;16.848;2022-08-14T06:41:28;26.70;73.60
21425;DHT22;10873;51.132;16.848;2022-08-14T06:43:54;26.70;73.70
21425;DHT22;10873;51.132;16.848;2022-08-14T06:46:21;26.70;73.70
21425;DHT22;10873;51.132;16.848;2022-08-14T06:48:49;26.70;73.80
21425;DHT22;10873;51.132;16.848;2022-08-14T06:51:15;26.70;73.80
21425;DHT22;10873;51.132;16.848;2022-08-14T06:53:42;26.70;73.80
21425;DHT22;10873;51.132;16.848;2022-08-14T06:56:08;26.70;73.80
21425;DHT22;10873;51.132;16.848;2022-08-14T06:58:34;26.70;73.80
21425;DHT22;10873;51.132;16.848;2022-08-14T07:01:00;26.70;73.90
21425;DHT22;10873;51.132;16.848;2022-08-14T07:03:46;26.70;73.90
21425;DHT22;10873;51.132;16.848;2022-08-14T07:06:34;26.70;74.00
21425;DHT22;10873;51.132;16.848;2022-08-14T07:09:00;26.80;74.10
21425;DHT22;10873;51.132;16.848;2022-08-14T07:11:26;26.70;74.00
21425;DHT22;10873;51.132;16.848;2022-08-14T07:13:52;26.80;74.10
21425;DHT22;10873;51.132;16.848;2022-08-14T07:16:18;26.80;74.10
21425;DHT22;10873;51.132;16.848;2022-08-14T07:18:44;26.80;74.20
21425;DHT22;10873;51.132;16.848;2022-08-14T07:21:11;26.70;74.30
21425;DHT22;10873;51.132;16.848;2022-08-14T07:23:39;26.70;74.30
21425;DHT22;10873;51.132;16.848;2022-08-14T07:26:06;26.80;74.40
21425;DHT22;10873;51.132;16.848;2022-08-14T07:28:34;26.70;74.40
21425;DHT22;10873;51.132;16.848;2022-08-14T07:31:08;26.80;74.60
21425;DHT22;10873;51.132;16.848;2022-08-14T07:33:37;26.80;74.60
21425;DHT22;10873;51.132;16.848;2022-08-14T07:36:07;26.80;74.60
21425;DHT22;10873;51.132;16.848;2022-08-14T07:38:36;26.80;74.60
21425;DHT22;10873;51.132;16.848;2022-08-14T07:41:20;26.80;74.60
21425;DHT22;10873;51.132;16.848;2022-08-14T07:43:47;26.80;74.60
21425;DHT22;10873;51.132;16.848;2022-08-14T07:46:14;26.80;74.70
21425;DHT22;10873;51.132;16.848;2022-08-14T07:48:41;26.80;74.60
21425;DHT22;10873;51.132;16.848;2022-08-14T07:51:09;26.80;74.70
21425;DHT22;10873;51.132;16.848;2022-08-14T07:53:37;26.80;74.60
21425;DHT22;10873;51.132;16.848;2022-08-14T07:56:03;26.80;74.60
21425;DHT22;10873;51.132;16.848;2022-08-14T07:58:32;26.80;74.60
21425;DHT22;10873;51.132;16.848;2022-08-14T08:00:59;26.80;74.60
21425;DHT22;10873;51.132;16.848;2022-08-14T08:03:28;26.80;74.60
21425;DHT22;10873;51.132;16.848;2022-08-14T08:05:58;26.80;74.70
21425;DHT22;10873;51.132;16.848;2022-08-14T08:08:25;26.80;74.70
21425;DHT22;10873;51.132;16.848;2022-08-14T08:10:53;26.80;74.70
21425;DHT22;10873;51.132;16.848;2022-08-14T08:13:20;26.80;74.70
21425;DHT22;10873;51.132;16.848;2022-08-14T08:15:50;26.80;74.70
21425;DHT22;10873;51.132;16.848;2022-08-14T08:18:19;26.80;74.70
21425;DHT22;10873;51.132;16.848;2022-08-14T08:20:47;26.80;74.70
21425;DHT22;10873;51.132;16.848;2022-08-14T08:23:16;26.80;74.70
21425;DHT22;10873;51.132;16.848;2022-08-14T08:25:44;26.80;74.70
21425;DHT22;10873;51.132;16.848;2022-08-14T08:28:15;26.80;74.70
21425;DHT22;10873;51.132;16.848;2022-08-14T08:30:48;26.80;74.80
21425;DHT22;10873;51.132;16.848;2022-08-14T08:33:18;26.80;74.80
21425;DHT22;10873;51.132;16.848;2022-08-14T08:35:45;26.80;74.90
21425;DHT22;10873;51.132;16.848;2022-08-14T08:38:13;26.80;75.00
21425;DHT22;10873;51.132;16.848;2022-08-14T08:40:43;26.80;75.00
21425;DHT22;10873;51.132;16.848;2022-08-14T08:43:17;26.80;75.00
21425;DHT22;10873;51.132;16.848;2022-08-14T08:45:52;26.80;74.90
21425;DHT22;10873;51.132;16.848;2022-08-14T08:48:21;26.80;75.10
21425;DHT22;10873;51.132;16.848;2022-08-14T08:50:48;26.80;75.00
21425;DHT22;10873;51.132;16.848;2022-08-14T08:53:14;26.80;75.00
21425;DHT22;10873;51.132;16.848;2022-08-14T08:55:43;26.80;75.00
21425;DHT22;10873;51.132;16.848;2022-08-14T08:58:12;26.80;75.00
21425;DHT22;10873;51.132;16.848;2022-08-14T09:00:40;26.80;75.00
21425;DHT22;10873;51.132;16.848;2022-08-14T09:03:08;26.80;74.90
21425;DHT22;10873;51.132;16.848;2022-08-14T09:05:38;26.80;74.90
21425;DHT22;10873;51.132;16.848;2022-08-14T09:08:12;26.80;74.80
21425;DHT22;10873;51.132;16.848;2022-08-14T09:10:38;26.90;74.90
21425;DHT22;10873;51.132;16.848;2022-08-14T09:13:05;26.90;74.70
21425;DHT22;10873;51.132;16.848;2022-08-14T09:15:31;26.80;74.60
21425;DHT22;10873;51.132;16.848;2022-08-14T09:17:58;26.90;74.60
21425;DHT22;10873;51.132;16.848;2022-08-14T09:20:24;26.90;74.60
21425;DHT22;10873;51.132;16.848;2022-08-14T09:22:53;26.90;74.50
21425;DHT22;10873;51.132;16.848;2022-08-14T09:25:19;26.90;74.50
21425;DHT22;10873;51.132;16.848;2022-08-14T09:27:45;26.90;74.50
21425;DHT22;10873;51.132;16.848;2022-08-14T09:30:12;26.90;74.50
21425;DHT22;10873;51.132;16.848;2022-08-14T09:32:45;26.90;74.40
21425;DHT22;10873;51.132;16.848;2022-08-14T09:35:23;26.90;74.30
21425;DHT22;10873;51.132;16.848;2022-08-14T09:38:02;26.90;74.40
21425;DHT22;10873;51.132;16.848;2022-08-14T09:40:37;26.90;74.40
21425;DHT22;10873;51.132;16.848;2022-08-14T09:43:17;26.90;74.30
21425;DHT22;10873;51.132;16.848;2022-08-14T09:45:47;26.90;74.50
21425;DHT22;10873;51.132;16.848;2022-08-14T09:48:15;26.90;74.60
21425;DHT22;10873;51.132;16.848;2022-08-14T09:50:46;26.90;74.50
21425;DHT22;10873;51.132;16.848;2022-08-14T09:53:16;26.90;74.40
21425;DHT22;10873;51.132;16.848;2022-08-14T09:55:43;26.90;74.50
21425;DHT22;10873;51.132;16.848;2022-08-14T09:58:13;26.90;74.40
21425;DHT22;10873;51.132;16.848;2022-08-14T10:00:45;26.90;74.40
21425;DHT22;10873;51.132;16.848;2022-08-14T10:03:23;26.90;74.30
21425;DHT22;10873;51.132;16.848;2022-08-14T10:05:49;26.90;74.10
21425;DHT22;10873;51.132;16.848;2022-08-14T10:08:19;27.00;74.30
21425;DHT22;10873;51.132;16.848;2022-08-14T10:10:46;27.00;74.90
21425;DHT22;10873;51.132;16.848;2022-08-14T10:13:21;27.00;74.20
21425;DHT22;10873;51.132;16.848;2022-08-14T10:15:47;27.00;74.00
21425;DHT22;10873;51.132;16.848;2022-08-14T10:18:16;27.00;73.90
21425;DHT22;10873;51.132;16.848;2022-08-14T10:20:50;27.00;74.00
21425;DHT22;10873;51.132;16.848;2022-08-14T10:23:20;27.00;74.00
21425;DHT22;10873;51.132;16.848;2022-08-14T10:25:49;27.00;73.90
21425;DHT22;10873;51.132;16.848;2022-08-14T10:28:17;27.00;73.80
21425;DHT22;10873;51.132;16.848;2022-08-14T10:30:44;27.00;73.80
21425;DHT22;10873;51.132;16.848;2022-08-14T10:33:24;27.00;73.80
21425;DHT22;10873;51.132;16.848;2022-08-14T10:35:50;27.00;73.80
21425;DHT22;10873;51.132;16.848;2022-08-14T10:38:27;27.00;73.80
21425;DHT22;10873;51.132;16.848;2022-08-14T10:40:53;27.00;73.90
21425;DHT22;10873;51.132;16.848;2022-08-14T10:43:21;27.00;73.80
21425;DHT22;10873;51.132;16.848;2022-08-14T10:45:55;27.00;73.90
21425;DHT22;10873;51.132;16.848;2022-08-14T10:48:23;27.00;73.90
21425;DHT22;10873;51.132;16.848;2022-08-14T10:50:49;27.00;73.90
21425;DHT22;10873;51.132;16.848;2022-08-14T10:53:28;27.00;73.80
21425;DHT22;10873;51.132;16.848;2022-08-14T10:55:58;27.00;73.70
21425;DHT22;10873;51.132;16.848;2022-08-14T10:58:27;27.00;73.60
21425;DHT22;10873;51.132;16.848;2022-08-14T11:00:56;27.00;73.60
21425;DHT22;10873;51.132;16.848;2022-08-14T11:03:23;27.00;73.60
21425;DHT22;10873;51.132;16.848;2022-08-14T11:05:51;27.00;73.60
21425;DHT22;10873;51.132;16.848;2022-08-14T11:08:28;27.00;73.70
21425;DHT22;10873;51.132;16.848;2022-08-14T11:10:59;27.00;74.00
21425;DHT22;10873;51.132;16.848;2022-08-14T11:13:27;27.00;74.10
21425;DHT22;10873;51.132;16.848;2022-08-14T11:15:55;27.00;74.10
21425;DHT22;10873;51.132;16.848;2022-08-14T11:18:22;27.00;74.10
21425;DHT22;10873;51.132;16.848;2022-08-14T11:20:50;27.00;74.20
21425;DHT22;10873;51.132;16.848;2022-08-14T11:23:20;27.00;74.40
21425;DHT22;10873;51.132;16.848;2022-08-14T11:25:48;27.00;74.40
21425;DHT22;10873;51.132;16.848;2022-08-14T11:28:19;27.00;74.60
21425;DHT22;10873;51.132;16.848;2022-08-14T11:30:49;27.00;75.30
21425;DHT22;10873;51.132;16.848;2022-08-14T11:33:17;27.00;74.60
21425;DHT22;10873;51.132;16.848;2022-08-14T11:35:47;27.00;74.80
21425;DHT22;10873;51.132;16.848;2022-08-14T11:38:13;27.00;74.90
21425;DHT22;10873;51.132;16.848;2022-08-14T11:40:40;27.00;74.90
21425;DHT22;10873;51.132;16.848;2022-08-14T11:43:08;27.00;74.90
21425;DHT22;10873;51.132;16.848;2022-08-14T11:45:37;27.00;74.90
21425;DHT22;10873;51.132;16.848;2022-08-14T11:48:15;27.00;74.90
21425;DHT22;10873;51.132;16.848;2022-08-14T11:50:41;27.00;75.00
21425;DHT22;10873;51.132;16.848;2022-08-14T11:53:19;27.00;75.10
21425;DHT22;10873;51.132;16.848;2022-08-14T11:55:46;27.00;75.20
21425;DHT22;10873;51.132;16.848;2022-08-14T11:58:15;27.00;76.10
21425;DHT22;10873;51.132;16.848;2022-08-14T12:00:47;27.00;75.50
21425;DHT22;10873;51.132;16.848;2022-08-14T12:03:14;27.00;75.50
21425;DHT22;10873;51.132;16.848;2022-08-14T12:05:40;27.00;75.60
21425;DHT22;10873;51.132;16.848;2022-08-14T12:08:09;27.00;75.60
21425;DHT22;10873;51.132;16.848;2022-08-14T12:10:36;27.00;75.60
21425;DHT22;10873;51.132;16.848;2022-08-14T12:13:13;27.00;75.60
21425;DHT22;10873;51.132;16.848;2022-08-14T12:15:41;27.00;75.60
21425;DHT22;10873;51.132;16.848;2022-08-14T12:18:09;27.00;75.70
21425;DHT22;10873;51.132;16.848;2022-08-14T12:20:39;27.00;75.90
21425;DHT22;10873;51.132;16.848;2022-08-14T12:23:19;27.00;76.00
21425;DHT22;10873;51.132;16.848;2022-08-14T12:25:46;27.00;75.80
21425;DHT22;10873;51.132;16.848;2022-08-14T12:28:12;27.00;76.00
21425;DHT22;10873;51.132;16.848;2022-08-14T12:30:42;27.00;76.20
21425;DHT22;10873;51.132;16.848;2022-08-14T12:33:20;27.00;76.30
21425;DHT22;10873;51.132;16.848;2022-08-14T12:35:48;27.00;76.20
21425;DHT22;10873;51.132;16.848;2022-08-14T12:38:15;27.00;76.30
21425;DHT22;10873;51.132;16.848;2022-08-14T12:40:45;27.00;76.50
21425;DHT22;10873;51.132;16.848;2022-08-14T12:43:12;27.00;76.30
21425;DHT22;10873;51.132;16.848;2022-08-14T12:45:39;27.00;76.40
21425;DHT22;10873;51.132;16.848;2022-08-14T12:48:05;27.00;76.30
21425;DHT22;10873;51.132;16.848;2022-08-14T12:50:38;27.00;76.30
21425;DHT22;10873;51.132;16.848;2022-08-14T12:53:05;27.00;76.30
21425;DHT22;10873;51.132;16.848;2022-08-14T12:55:33;27.00;76.30
21425;DHT22;10873;51.132;16.848;2022-08-14T12:58:01;27.00;76.30
21425;DHT22;10873;51.132;16.848;2022-08-14T13:00:31;27.00;76.20
21425;DHT22;10873;51.132;16.848;2022-08-14T13:02:58;27.00;76.30
21425;DHT22;10873;51.132;16.848;2022-08-14T13:05:25;27.00;76.20
21425;DHT22;10873;51.132;16.848;2022-08-14T13:07:52;27.00;76.10
21425;DHT22;10873;51.132;16.848;2022-08-14T13:10:20;27.00;76.10
21425;DHT22;10873;51.132;16.848;2022-08-14T13:12:47;27.00;76.00
21425;DHT22;10873;51.132;16.848;2022-08-14T13:15:15;27.00;76.00
21425;DHT22;10873;51.132;16.848;2022-08-14T13:17:44;27.00;76.00
21425;DHT22;10873;51.132;16.848;2022-08-14T13:20:12;27.10;76.10
21425;DHT22;10873;51.132;16.848;2022-08-14T13:22:39;27.10;76.10
21425;DHT22;10873;51.132;16.848;2022-08-14T13:25:10;27.10;75.90
21425;DHT22;10873;51.132;16.848;2022-08-14T13:27:37;27.10;75.90
21425;DHT22;10873;51.132;16.848;2022-08-14T13:30:05;27.10;75.80
21425;DHT22;10873;51.132;16.848;2022-08-14T13:32:32;27.10;75.80
21425;DHT22;10873;51.132;16.848;2022-08-14T13:34:59;27.10;76.00
21425;DHT22;10873;51.132;16.848;2022-08-14T13:37:25;27.10;76.10
21425;DHT22;10873;51.132;16.848;2022-08-14T13:39:53;27.10;76.10
21425;DHT22;10873;51.132;16.848;2022-08-14T13:42:21;27.10;76.00
21425;DHT22;10873;51.132;16.848;2022-08-14T13:44:48;27.10;76.10
21425;DHT22;10873;51.132;16.848;2022-08-14T13:47:19;27.10;76.30
21425;DHT22;10873;51.132;16.848;2022-08-14T13:49:45;27.10;76.20
21425;DHT22;10873;51.132;16.848;2022-08-14T13:52:14;27.20;76.20
21425;DHT22;10873;51.132;16.848;2022-08-14T13:54:44;27.10;76.20
21425;DHT22;10873;51.132;16.848;2022-08-14T13:57:11;27.20;76.30
21425;DHT22;10873;51.132;16.848;2022-08-14T13:59:43;27.20;76.30
21425;DHT22;10873;51.132;16.848;2022-08-14T14:02:10;27.20;76.40
21425;DHT22;10873;51.132;16.848;2022-08-14T14:04:40;27.20;76.80
21425;DHT22;10873;51.132;16.848;2022-08-14T14:07:08;27.10;76.30
21425;DHT22;10873;51.132;16.848;2022-08-14T14:09:39;27.20;76.30
21425;DHT22;10873;51.132;16.848;2022-08-14T14:12:06;27.20;76.30
21425;DHT22;10873;51.132;16.848;2022-08-14T14:14:33;27.10;76.40
21425;DHT22;10873;51.132;16.848;2022-08-14T14:17:02;27.20;76.50
21425;DHT22;10873;51.132;16.848;2022-08-14T14:19:30;27.10;76.40
21425;DHT22;10873;51.132;16.848;2022-08-14T14:21:59;27.20;76.40
21425;DHT22;10873;51.132;16.848;2022-08-14T14:24:26;27.20;76.50
21425;DHT22;10873;51.132;16.848;2022-08-14T14:26:52;27.20;76.40
21425;DHT22;10873;51.132;16.848;2022-08-14T14:29:19;27.10;76.30
21425;DHT22;10873;51.132;16.848;2022-08-14T14:31:47;27.10;76.30
21425;DHT22;10873;51.132;16.848;2022-08-14T14:34:15;27.10;76.30
21425;DHT22;10873;51.132;16.848;2022-08-14T14:36:43;27.10;76.40
21425;DHT22;10873;51.132;16.848;2022-08-14T14:39:10;27.10;76.30
21425;DHT22;10873;51.132;16.848;2022-08-14T14:41:39;27.10;76.40
21425;DHT22;10873;51.132;16.848;2022-08-14T14:44:06;27.10;76.40
21425;DHT22;10873;51.132;16.848;2022-08-14T14:46:35;27.10;76.40
21425;DHT22;10873;51.132;16.848;2022-08-14T14:49:04;27.10;76.40
21425;DHT22;10873;51.132;16.848;2022-08-14T14:51:32;27.10;76.40
21425;DHT22;10873;51.132;16.848;2022-08-14T14:53:58;27.10;76.50
21425;DHT22;10873;51.132;16.848;2022-08-14T14:56:28;27.10;76.40
21425;DHT22;10873;51.132;16.848;2022-08-14T14:58:54;27.10;76.40
21425;DHT22;10873;51.132;16.848;2022-08-14T15:01:20;27.10;76.40
21425;DHT22;10873;51.132;16.848;2022-08-14T15:03:49;27.10;76.30
21425;DHT22;10873;51.132;16.848;2022-08-14T15:06:19;27.10;76.30
21425;DHT22;10873;51.132;16.848;2022-08-14T15:08:47;27.10;76.30
21425;DHT22;10873;51.132;16.848;2022-08-14T15:11:13;27.10;76.20
21425;DHT22;10873;51.132;16.848;2022-08-14T15:13:39;27.20;76.30
21425;DHT22;10873;51.132;16.848;2022-08-14T15:16:07;27.20;76.20
21425;DHT22;10873;51.132;16.848;2022-08-14T15:18:34;27.10;76.10
21425;DHT22;10873;51.132;16.848;2022-08-14T15:21:00;27.10;76.00
21425;DHT22;10873;51.132;16.848;2022-08-14T15:23:28;27.20;76.10